KCCY/CCY METAR and TAF weather

Enter ICAO airport designator
Station Type Date Time Source
KCCY METAR 2018/04/19 13:35 UTC NOAA

KCCY 191335Z AUTO 36009KT 10SM CLR M04/M06 A3040 RMK AO2


Station Type Date Time Source
KCCY Decoded METAR 2018/04/19 13:35 UTC NOAA

Charles City, IA, United States (KCCY) 43-04N 092-37W
Apr 19, 2018 - 09:35 AM EDT / 2018.04.19 1335 UTC
Wind: from the N (360 degrees) at 10 MPH (9 KT):0
Visibility: 10 mile(s):0
Sky conditions: clear
Temperature: 24 F (-4 C)
Windchill: 14 F (-10 C):1
Dew Point: 21 F (-6 C)
Relative Humidity: 85%
Pressure (altimeter): 30.4 in. Hg (1029 hPa)
ob: KCCY 191335Z AUTO 36009KT 10SM CLR M04/M06 A3040 RMK AO2
cycle: 13

Station Type Date Time Source
KCCY TAF UTC NOAA

Error!


Example: see airport list